TimeEST,TemperatureF,Dew PointF,Humidity,Sea Level PressureIn,VisibilityMPH,Wind Direction,Wind SpeedMPH,Gust SpeedMPH,PrecipitationIn,Events,Conditions,WindDirDegrees,DateUTC
12:15 AM,46.4,46.4,100,29.99,10.0,NW,4.6,-,N/A,,Mostly Cloudy,320,2013-01-02 05:15:00
12:35 AM,46.4,46.4,100,30.00,10.0,NW,8.1,-,N/A,,Overcast,320,2013-01-02 05:35:00
12:55 AM,46.4,46.4,100,30.00,10.0,NNW,12.7,16.1,N/A,,Overcast,330,2013-01-02 05:55:00
1:15 AM,46.4,46.4,100,30.01,10.0,NNW,10.4,17.3,N/A,,Overcast,330,2013-01-02 06:15:00
1:35 AM,44.6,44.6,100,30.03,10.0,NNW,11.5,-,0.01,,Overcast,330,2013-01-02 06:35:00
1:55 AM,42.8,42.8,100,30.04,4.0,NNW,11.5,-,0.01,,Drizzle,330,2013-01-02 06:55:00
2:15 AM,42.8,42.8,100,30.05,10.0,NNW,6.9,-,N/A,,Overcast,330,2013-01-02 07:15:00
2:35 AM,41.0,41.0,100,30.04,10.0,NNW,10.4,-,N/A,,Overcast,340,2013-01-02 07:35:00
2:55 AM,41.0,41.0,100,30.03,10.0,North,6.9,-,N/A,,Overcast,350,2013-01-02 07:55:00
3:15 AM,41.0,41.0,100,30.04,10.0,NNW,9.2,-,N/A,,Overcast,330,2013-01-02 08:15:00
3:35 AM,41.0,41.0,100,30.04,10.0,NNW,6.9,-,N/A,,Overcast,340,2013-01-02 08:35:00
3:55 AM,41.0,41.0,100,30.04,10.0,NW,10.4,-,N/A,,Overcast,320,2013-01-02 08:55:00
4:15 AM,41.0,41.0,100,30.04,10.0,NW,10.4,-,N/A,,Scattered Clouds,320,2013-01-02 09:15:00
4:35 AM,41.0,41.0,100,30.04,10.0,NW,12.7,18.4,N/A,,Clear,320,2013-01-02 09:35:00
4:55 AM,41.0,41.0,100,30.04,10.0,NNW,10.4,-,N/A,,Clear,330,2013-01-02 09:55:00
5:15 AM,39.2,39.2,100,30.05,10.0,NNW,11.5,-,N/A,,Scattered Clouds,330,2013-01-02 10:15:00
5:35 AM,41.0,39.2,93,30.06,10.0,NNW,10.4,-,N/A,,Scattered Clouds,340,2013-01-02 10:35:00
5:55 AM,41.0,39.2,93,30.06,10.0,NNW,10.4,16.1,N/A,,Mostly Cloudy,340,2013-01-02 10:55:00
6:15 AM,41.0,39.2,93,30.08,10.0,NNW,11.5,-,N/A,,Overcast,340,2013-01-02 11:15:00
6:35 AM,39.2,37.4,93,30.08,10.0,NNW,13.8,-,N/A,,Overcast,330,2013-01-02 11:35:00
6:55 AM,39.2,37.4,93,30.08,10.0,NNW,11.5,-,N/A,,Overcast,340,2013-01-02 11:55:00
7:15 AM,39.2,37.4,93,30.09,10.0,NNW,10.4,17.3,N/A,,Overcast,340,2013-01-02 12:15:00
7:35 AM,39.2,37.4,93,30.10,10.0,NNW,11.5,-,N/A,,Overcast,340,2013-01-02 12:35:00
7:55 AM,37.4,37.4,100,30.10,10.0,NNW,11.5,16.1,N/A,,Overcast,330,2013-01-02 12:55:00
8:15 AM,37.4,35.6,93,30.11,10.0,NNW,11.5,-,N/A,,Overcast,340,2013-01-02 13:15:00
8:35 AM,37.4,37.4,100,30.10,10.0,North,6.9,-,N/A,,Overcast,350,2013-01-02 13:35:00
8:55 AM,37.4,37.4,100,30.12,10.0,NNW,9.2,-,N/A,,Overcast,340,2013-01-02 13:55:00
9:15 AM,37.4,35.6,93,30.11,10.0,North,9.2,16.1,N/A,,Overcast,350,2013-01-02 14:15:00
9:35 AM,37.4,35.6,93,30.13,10.0,NNW,10.4,16.1,N/A,,Overcast,340,2013-01-02 14:35:00
9:55 AM,37.4,35.6,93,30.14,10.0,North,8.1,-,N/A,,Overcast,350,2013-01-02 14:55:00
10:15 AM,39.2,35.6,87,30.14,10.0,North,8.1,-,N/A,,Overcast,360,2013-01-02 15:15:00
10:35 AM,37.4,35.6,93,30.16,10.0,NNW,9.2,-,N/A,,Overcast,340,2013-01-02 15:35:00
10:55 AM,37.4,35.6,93,30.17,10.0,NNW,10.4,-,N/A,,Overcast,330,2013-01-02 15:55:00
11:15 AM,37.4,35.6,93,30.17,10.0,NNW,8.1,-,N/A,,Overcast,340,2013-01-02 16:15:00
11:35 AM,37.4,35.6,93,30.16,10.0,NNW,9.2,-,N/A,,Overcast,340,2013-01-02 16:35:00
11:55 AM,39.2,35.6,87,30.15,10.0,NNW,10.4,-,N/A,,Overcast,330,2013-01-02 16:55:00
12:15 PM,39.2,35.6,87,30.15,10.0,NNW,10.4,-,N/A,,Overcast,340,2013-01-02 17:15:00
12:35 PM,39.2,35.6,87,30.13,10.0,North,6.9,-,N/A,,Overcast,360,2013-01-02 17:35:00
12:55 PM,39.2,35.6,87,30.13,10.0,NNW,8.1,-,N/A,,Overcast,340,2013-01-02 17:55:00
1:15 PM,39.2,35.6,87,30.11,10.0,NNW,9.2,-,N/A,,Overcast,330,2013-01-02 18:15:00
1:35 PM,39.2,35.6,87,30.11,10.0,North,9.2,-,N/A,,Overcast,350,2013-01-02 18:35:00
1:55 PM,39.2,35.6,87,30.11,10.0,North,6.9,-,N/A,,Overcast,360,2013-01-02 18:55:00
2:15 PM,39.2,35.6,87,30.12,10.0,NNW,8.1,-,N/A,,Overcast,340,2013-01-02 19:15:00
2:35 PM,39.2,35.6,87,30.11,10.0,North,8.1,-,N/A,,Overcast,350,2013-01-02 19:35:00
2:55 PM,39.2,35.6,87,30.10,10.0,North,8.1,-,N/A,,Overcast,350,2013-01-02 19:55:00
3:15 PM,39.2,35.6,87,30.11,10.0,NNW,8.1,-,N/A,,Overcast,330,2013-01-02 20:15:00
3:35 PM,39.2,35.6,87,30.11,10.0,North,6.9,-,N/A,,Overcast,350,2013-01-02 20:35:00
4:15 PM,39.2,35.6,87,30.14,10.0,NNW,9.2,-,N/A,,Overcast,330,2013-01-02 21:15:00
4:35 PM,39.2,35.6,87,30.13,10.0,NNW,8.1,-,N/A,,Overcast,340,2013-01-02 21:35:00
4:55 PM,39.2,35.6,87,30.13,10.0,NNW,5.8,-,N/A,,Overcast,340,2013-01-02 21:55:00
5:15 PM,39.2,35.6,87,30.13,10.0,NNW,6.9,-,N/A,,Overcast,340,2013-01-02 22:15:00
5:35 PM,37.4,35.6,93,30.12,10.0,NNW,8.1,-,N/A,,Overcast,330,2013-01-02 22:35:00
5:55 PM,37.4,35.6,93,30.12,10.0,NNW,8.1,-,N/A,,Overcast,340,2013-01-02 22:55:00
6:15 PM,37.4,35.6,93,30.12,10.0,NNW,4.6,-,N/A,,Overcast,330,2013-01-02 23:15:00
6:35 PM,37.4,35.6,93,30.15,10.0,NNW,5.8,-,N/A,,Overcast,330,2013-01-02 23:35:00
6:55 PM,37.4,35.6,93,30.14,10.0,NNW,4.6,-,N/A,,Mostly Cloudy,340,2013-01-02 23:55:00
7:15 PM,37.4,35.6,93,30.15,10.0,NNW,4.6,-,N/A,,Mostly Cloudy,330,2013-01-03 00:15:00
7:35 PM,37.4,35.6,93,30.16,10.0,NNW,5.8,-,N/A,,Mostly Cloudy,340,2013-01-03 00:35:00
7:55 PM,37.4,35.6,93,30.16,10.0,NNW,5.8,-,N/A,,Mostly Cloudy,340,2013-01-03 00:55:00
8:15 PM,37.4,35.6,93,30.17,10.0,NW,5.8,-,N/A,,Scattered Clouds,320,2013-01-03 01:15:00
8:35 PM,37.4,35.6,93,30.17,10.0,NNW,5.8,-,N/A,,Clear,330,2013-01-03 01:35:00
8:55 PM,37.4,35.6,93,30.17,10.0,NW,3.5,-,N/A,,Clear,320,2013-01-03 01:55:00
9:15 PM,37.4,35.6,93,30.17,10.0,Calm,Calm,-,N/A,,Scattered Clouds,0,2013-01-03 02:15:00
9:35 PM,37.4,35.6,93,30.18,10.0,NNW,4.6,-,N/A,,Scattered Clouds,330,2013-01-03 02:35:00
9:55 PM,37.4,35.6,93,30.17,10.0,Calm,Calm,-,N/A,,Mostly Cloudy,0,2013-01-03 02:55:00
10:15 PM,37.4,35.6,93,30.17,10.0,NNW,3.5,-,N/A,,Overcast,340,2013-01-03 03:15:00
10:35 PM,37.4,35.6,93,30.17,10.0,NW,4.6,-,N/A,,Overcast,320,2013-01-03 03:35:00
10:55 PM,37.4,35.6,93,30.16,10.0,NNW,3.5,-,N/A,,Mostly Cloudy,340,2013-01-03 03:55:00
11:15 PM,37.4,35.6,93,30.18,10.0,NW,8.1,-,N/A,,Mostly Cloudy,320,2013-01-03 04:15:00
11:35 PM,37.4,35.6,93,30.18,10.0,NNW,8.1,-,N/A,,Overcast,330,2013-01-03 04:35:00
11:55 PM,37.4,35.6,93,30.18,10.0,NNW,8.1,-,N/A,,Mostly Cloudy,330,2013-01-03 04:55:00